createdAt,value
2022-08-28T00:00:46.412Z,22.50
2022-08-28T00:03:17.363Z,22.30
2022-08-28T00:05:47.147Z,22.20
2022-08-28T00:08:18.013Z,22.30
2022-08-28T00:10:47.530Z,22.30
2022-08-28T00:13:20.613Z,22.40
2022-08-28T00:15:56.368Z,22.40
2022-08-28T00:18:26.927Z,22.60
2022-08-28T00:20:56.680Z,22.60
2022-08-28T00:23:26.565Z,22.70
2022-08-28T00:26:32.053Z,22.80
2022-08-28T00:28:59.954Z,22.70
2022-08-28T00:31:28.736Z,22.70
2022-08-28T00:33:58.778Z,22.80
2022-08-28T00:36:29.888Z,22.90
2022-08-28T00:39:00.236Z,22.90
2022-08-28T00:41:31.373Z,23.00
2022-08-28T00:44:13.408Z,22.90
2022-08-28T00:46:43.693Z,23.00
2022-08-28T00:49:17.111Z,23.00
2022-08-28T00:52:05.211Z,23.00
2022-08-28T00:54:37.665Z,23.00
2022-08-28T00:57:11.409Z,23.00
2022-08-28T00:59:40.079Z,22.70
2022-08-28T01:02:09.285Z,22.50
2022-08-28T01:04:40.096Z,22.30
2022-08-28T01:07:13.108Z,22.20
2022-08-28T01:09:46.932Z,22.30
2022-08-28T01:12:22.039Z,22.30
2022-08-28T01:14:54.726Z,22.50
2022-08-28T01:17:25.903Z,22.60
2022-08-28T01:20:01.132Z,22.60
2022-08-28T01:22:38.159Z,22.40
2022-08-28T01:25:16.036Z,22.50
2022-08-28T01:27:44.734Z,22.60
2022-08-28T01:30:18.846Z,22.60
2022-08-28T01:32:52.459Z,22.70
2022-08-28T01:35:25.798Z,22.70
2022-08-28T01:37:56.375Z,22.70
2022-08-28T01:40:30.666Z,22.70
2022-08-28T01:43:10.129Z,22.70
2022-08-28T01:45:38.836Z,22.80
2022-08-28T01:48:09.072Z,22.80
2022-08-28T01:50:38.200Z,22.80
2022-08-28T01:53:12.558Z,22.80
2022-08-28T01:55:43.309Z,22.80
2022-08-28T01:58:14.396Z,22.90
2022-08-28T02:00:44.175Z,22.80
2022-08-28T02:03:13.840Z,22.80
2022-08-28T02:05:43.182Z,22.80
2022-08-28T02:08:12.336Z,22.80
2022-08-28T02:10:44.797Z,22.80
2022-08-28T02:13:14.713Z,22.70
2022-08-28T02:15:44.378Z,22.70
2022-08-28T02:18:14.609Z,22.70
2022-08-28T02:20:44.144Z,22.70
2022-08-28T02:23:13.885Z,22.70
2022-08-28T02:25:44.037Z,22.60
2022-08-28T02:28:12.851Z,22.60
2022-08-28T02:30:42.285Z,22.40
2022-08-28T02:33:10.852Z,22.50
2022-08-28T02:35:41.648Z,22.30
2022-08-28T02:38:10.479Z,22.10
2022-08-28T02:40:40.333Z,22.00
2022-08-28T02:43:11.074Z,21.90
2022-08-28T02:45:39.694Z,21.90
2022-08-28T02:48:15.977Z,21.90
2022-08-28T02:50:46.604Z,21.90
2022-08-28T02:53:15.343Z,22.00
2022-08-28T02:55:43.955Z,22.10
2022-08-28T02:58:14.043Z,22.20
2022-08-28T03:00:42.666Z,22.20
2022-08-28T03:03:11.597Z,22.10
2022-08-28T03:05:40.340Z,22.10
2022-08-28T03:08:09.319Z,22.10
2022-08-28T03:10:38.071Z,22.10
2022-08-28T03:13:07.288Z,22.20
2022-08-28T03:15:37.426Z,22.30
2022-08-28T03:18:08.168Z,22.30
2022-08-28T03:20:40.096Z,22.30
2022-08-28T03:23:26.453Z,22.30
2022-08-28T03:25:57.283Z,22.30
2022-08-28T03:28:28.497Z,22.20
2022-08-28T03:30:58.984Z,22.30
2022-08-28T03:33:28.038Z,22.30
2022-08-28T03:35:56.735Z,22.20
2022-08-28T03:38:25.826Z,22.20
2022-08-28T03:40:55.137Z,22.20
2022-08-28T03:43:26.151Z,22.20
2022-08-28T03:46:00.505Z,22.10
2022-08-28T03:48:32.168Z,22.10
2022-08-28T03:51:02.390Z,22.00
2022-08-28T03:53:31.666Z,22.00
2022-08-28T03:56:00.305Z,22.00
2022-08-28T03:58:29.893Z,22.00
2022-08-28T04:00:59.987Z,22.00
2022-08-28T04:03:28.737Z,22.10
2022-08-28T04:05:57.502Z,22.00
2022-08-28T04:08:26.820Z,22.10
2022-08-28T04:10:55.420Z,22.10
2022-08-28T04:13:24.769Z,22.10
2022-08-28T04:16:06.375Z,22.10
2022-08-28T04:18:35.749Z,22.00
2022-08-28T04:21:09.174Z,22.00
2022-08-28T04:23:41.541Z,22.00
2022-08-28T04:26:11.745Z,22.00
2022-08-28T04:28:40.825Z,22.00
2022-08-28T04:31:11.199Z,22.00
2022-08-28T04:33:41.392Z,22.00
2022-08-28T04:36:14.309Z,21.90
2022-08-28T04:38:44.365Z,22.00
2022-08-28T04:41:15.901Z,21.90
2022-08-28T04:43:45.663Z,21.90
2022-08-28T04:46:16.853Z,21.90
2022-08-28T04:48:45.959Z,21.90
2022-08-28T04:51:15.396Z,22.00
2022-08-28T04:53:44.730Z,22.00
2022-08-28T04:56:16.092Z,22.00
2022-08-28T04:58:46.089Z,22.10
2022-08-28T05:01:19.564Z,22.00
2022-08-28T05:03:49.958Z,22.00
2022-08-28T05:06:18.707Z,22.00
2022-08-28T05:08:47.284Z,21.90
2022-08-28T05:11:33.137Z,21.90
2022-08-28T05:14:04.934Z,22.00
2022-08-28T05:16:43.072Z,22.10
2022-08-28T05:19:12.472Z,22.10
2022-08-28T05:21:42.221Z,22.20
2022-08-28T05:24:12.692Z,22.20
2022-08-28T05:26:42.153Z,22.20
2022-08-28T05:29:12.022Z,22.20
2022-08-28T05:31:42.825Z,22.20
2022-08-28T05:34:12.909Z,22.20
2022-08-28T05:36:42.499Z,22.10
2022-08-28T05:39:13.698Z,22.10
2022-08-28T05:41:45.439Z,22.20
2022-08-28T05:44:16.717Z,22.30
2022-08-28T05:46:49.064Z,22.40
2022-08-28T05:49:19.731Z,22.40
2022-08-28T05:51:49.260Z,22.50
2022-08-28T05:54:18.530Z,22.50
2022-08-28T05:56:48.084Z,22.60
2022-08-28T05:59:17.956Z,22.60
2022-08-28T06:01:50.475Z,22.70
2022-08-28T06:04:26.537Z,22.70
2022-08-28T06:06:56.157Z,22.80
2022-08-28T06:09:29.950Z,22.80
2022-08-28T06:12:01.899Z,22.90
2022-08-28T06:14:31.465Z,22.90
2022-08-28T06:17:03.448Z,23.00
2022-08-28T06:19:40.595Z,23.10
2022-08-28T06:22:12.448Z,23.20
2022-08-28T06:24:41.283Z,23.30
2022-08-28T06:27:10.043Z,23.40
2022-08-28T06:29:39.921Z,23.40
2022-08-28T06:32:10.114Z,23.30
2022-08-28T06:34:38.868Z,23.40
2022-08-28T06:37:08.056Z,23.40
2022-08-28T06:39:36.728Z,23.40
2022-08-28T06:42:07.010Z,23.50
2022-08-28T06:44:37.709Z,23.50
2022-08-28T06:47:06.604Z,23.60
2022-08-28T06:49:36.764Z,23.70
2022-08-28T06:52:05.967Z,23.70
2022-08-28T06:54:34.789Z,23.70
2022-08-28T06:57:03.641Z,23.70
2022-08-28T06:59:32.401Z,23.70
2022-08-28T07:02:02.591Z,23.70
2022-08-28T07:04:31.327Z,23.80
2022-08-28T07:07:01.357Z,23.90
2022-08-28T07:09:30.442Z,24.10
2022-08-28T07:11:59.158Z,24.30
2022-08-28T07:14:27.998Z,24.40
2022-08-28T07:16:57.115Z,24.60
2022-08-28T07:19:27.440Z,24.70
2022-08-28T07:21:56.235Z,24.80
2022-08-28T07:24:27.072Z,24.80
2022-08-28T07:26:56.125Z,24.90
2022-08-28T07:29:25.581Z,25.00
2022-08-28T07:31:58.928Z,25.20
2022-08-28T07:34:27.676Z,25.50
2022-08-28T07:36:58.352Z,25.70
2022-08-28T07:39:28.882Z,25.90
2022-08-28T07:41:57.798Z,25.90
2022-08-28T07:44:43.791Z,26.00
2022-08-28T07:47:12.902Z,26.20
2022-08-28T07:49:42.144Z,26.50
2022-08-28T07:52:12.950Z,26.70
2022-08-28T07:54:43.132Z,26.90
2022-08-28T07:57:12.284Z,27.10
2022-08-28T07:59:43.159Z,27.20
2022-08-28T08:02:12.380Z,27.40
2022-08-28T08:04:41.472Z,27.50
2022-08-28T08:07:12.932Z,27.50
2022-08-28T08:09:44.620Z,27.40
2022-08-28T08:12:15.571Z,27.70
2022-08-28T08:14:45.785Z,27.90
2022-08-28T08:17:14.426Z,28.00
2022-08-28T08:19:43.143Z,28.00
2022-08-28T08:22:11.996Z,28.10
2022-08-28T08:24:42.956Z,28.10
2022-08-28T08:27:11.862Z,28.10
2022-08-28T08:29:40.840Z,28.00
2022-08-28T08:32:12.476Z,28.00
2022-08-28T08:34:45.916Z,28.00
2022-08-28T08:37:16.232Z,28.10
2022-08-28T08:39:46.352Z,28.10
2022-08-28T08:42:28.497Z,27.80
2022-08-28T08:45:00.878Z,27.60
2022-08-28T08:47:44.247Z,27.20
2022-08-28T08:50:20.637Z,26.90
2022-08-28T08:53:10.313Z,26.80
2022-08-28T08:55:47.468Z,26.90
2022-08-28T08:58:27.307Z,27.10
2022-08-28T09:01:04.997Z,27.20
2022-08-28T09:03:54.904Z,27.40
2022-08-28T09:06:37.023Z,27.40
2022-08-28T09:09:15.968Z,27.50
2022-08-28T09:11:57.398Z,27.40
2022-08-28T09:14:39.252Z,27.40
2022-08-28T09:17:11.594Z,27.80
2022-08-28T09:19:40.440Z,28.60
2022-08-28T09:22:09.421Z,29.10
2022-08-28T09:24:41.566Z,29.70
2022-08-28T09:27:26.407Z,29.90
2022-08-28T09:29:59.073Z,29.90
2022-08-28T09:32:41.593Z,29.90
2022-08-28T09:35:19.155Z,29.80
2022-08-28T09:37:47.965Z,30.00
2022-08-28T09:40:27.615Z,30.00
2022-08-28T09:43:24.827Z,30.00
2022-08-28T09:45:58.352Z,30.00
2022-08-28T09:48:36.376Z,30.00
2022-08-28T09:51:07.957Z,30.00
2022-08-28T09:53:43.582Z,30.10
2022-08-28T09:56:19.457Z,30.00
2022-08-28T09:58:54.817Z,29.90
2022-08-28T10:01:45.239Z,29.80
2022-08-28T10:04:41.221Z,29.60
2022-08-28T10:07:23.329Z,29.40
2022-08-28T10:10:17.953Z,29.30
2022-08-28T10:13:07.143Z,29.40
2022-08-28T10:16:02.260Z,29.50
2022-08-28T10:18:43.655Z,29.20
2022-08-28T10:21:22.721Z,28.90
2022-08-28T10:24:28.764Z,28.80
2022-08-28T10:27:13.177Z,28.80
2022-08-28T10:29:54.820Z,28.80
2022-08-28T10:32:54.558Z,28.70
2022-08-28T10:35:29.131Z,28.80
2022-08-28T10:38:10.915Z,29.00
2022-08-28T10:40:49.043Z,29.40
2022-08-28T10:43:25.515Z,29.70
2022-08-28T10:45:55.097Z,29.90
2022-08-28T10:48:33.815Z,30.20
2022-08-28T10:51:08.304Z,30.20
2022-08-28T10:53:43.379Z,30.10
2022-08-28T10:56:19.181Z,29.90
2022-08-28T10:58:53.038Z,29.80
2022-08-28T11:01:30.375Z,29.70
2022-08-28T11:04:06.987Z,29.70
2022-08-28T11:06:43.206Z,29.50
2022-08-28T11:09:27.252Z,29.30
2022-08-28T11:12:02.065Z,29.30
2022-08-28T11:14:39.424Z,29.50
2022-08-28T11:17:41.639Z,29.70
2022-08-28T11:20:19.269Z,29.90
2022-08-28T11:22:53.605Z,30.00
2022-08-28T11:25:32.761Z,29.90
2022-08-28T11:28:22.545Z,29.90
2022-08-28T11:31:35.974Z,30.10
2022-08-28T11:34:05.829Z,30.20
2022-08-28T11:37:00.846Z,30.20
2022-08-28T11:39:30.161Z,30.10
2022-08-28T11:42:35.185Z,30.10
2022-08-28T11:45:04.041Z,30.00
2022-08-28T11:47:56.720Z,30.00
2022-08-28T11:50:34.614Z,30.00
2022-08-28T11:53:49.530Z,30.00
2022-08-28T11:57:01.915Z,30.00
2022-08-28T12:00:04.566Z,29.90
2022-08-28T12:02:52.962Z,29.90
2022-08-28T12:05:49.834Z,29.90
2022-08-28T12:09:06.927Z,29.80
2022-08-28T12:12:04.683Z,29.90
2022-08-28T12:15:11.354Z,29.90
2022-08-28T12:17:54.121Z,29.70
2022-08-28T12:21:02.204Z,29.60
2022-08-28T12:23:41.041Z,29.60
2022-08-28T12:26:20.849Z,29.50
2022-08-28T12:28:56.204Z,29.50
2022-08-28T12:32:12.547Z,29.60
2022-08-28T12:35:16.459Z,29.60
2022-08-28T12:38:00.132Z,29.50
2022-08-28T12:40:50.648Z,29.50
2022-08-28T12:43:35.767Z,29.40
2022-08-28T12:46:19.243Z,29.40
2022-08-28T12:48:53.571Z,29.30
2022-08-28T12:51:25.547Z,29.30
2022-08-28T12:53:57.391Z,29.30
2022-08-28T12:56:30.207Z,29.20
2022-08-28T12:59:27.114Z,29.20
2022-08-28T13:02:04.863Z,29.20
2022-08-28T13:04:36.986Z,29.30
2022-08-28T13:07:15.095Z,29.30
2022-08-28T13:09:50.173Z,29.40
2022-08-28T13:12:37.315Z,29.70
2022-08-28T13:15:14.300Z,29.90
2022-08-28T13:17:55.026Z,30.30
2022-08-28T13:20:30.061Z,30.60
2022-08-28T13:23:00.087Z,30.90
2022-08-28T13:25:33.760Z,31.10
2022-08-28T13:28:12.518Z,31.30
2022-08-28T13:30:41.420Z,31.30
2022-08-28T13:33:23.757Z,31.30
2022-08-28T13:35:54.985Z,31.30
2022-08-28T13:38:26.338Z,31.30
2022-08-28T13:41:00.161Z,31.30
2022-08-28T13:43:42.925Z,31.30
2022-08-28T13:46:11.627Z,31.30
2022-08-28T13:48:41.761Z,31.30
2022-08-28T13:51:20.805Z,31.20
2022-08-28T13:53:49.841Z,31.20
2022-08-28T13:56:18.587Z,31.20
2022-08-28T13:58:57.806Z,31.20
2022-08-28T14:01:48.351Z,31.10
2022-08-28T14:04:17.554Z,30.70
2022-08-28T14:06:46.292Z,30.10
2022-08-28T14:09:17.798Z,29.70
2022-08-28T14:11:46.758Z,29.50
2022-08-28T14:14:15.752Z,29.30
2022-08-28T14:16:45.829Z,29.10
2022-08-28T14:19:14.770Z,28.90
2022-08-28T14:21:44.948Z,28.90
2022-08-28T14:24:13.795Z,28.80
2022-08-28T14:26:42.879Z,28.70
2022-08-28T14:29:15.519Z,28.60
2022-08-28T14:31:45.113Z,28.60
2022-08-28T14:34:17.736Z,28.50
2022-08-28T14:36:50.922Z,28.40
2022-08-28T14:39:19.756Z,28.40
2022-08-28T14:41:49.561Z,28.40
2022-08-28T14:44:19.166Z,28.30
2022-08-28T14:46:50.280Z,28.30
2022-08-28T14:49:20.801Z,28.20
2022-08-28T14:51:52.940Z,28.20
2022-08-28T14:54:25.262Z,28.10
2022-08-28T14:56:56.284Z,28.00
2022-08-28T14:59:29.962Z,27.90
2022-08-28T15:02:02.194Z,27.80
2022-08-28T15:04:37.744Z,27.80
2022-08-28T15:07:11.033Z,27.80
2022-08-28T15:09:43.475Z,27.70
2022-08-28T15:12:12.256Z,27.70
2022-08-28T15:14:41.360Z,27.70
2022-08-28T15:17:23.707Z,27.70
2022-08-28T15:20:03.297Z,27.60
2022-08-28T15:22:33.391Z,27.60
2022-08-28T15:25:02.078Z,27.60
2022-08-28T15:27:30.661Z,27.60
2022-08-28T15:29:59.465Z,27.50
2022-08-28T15:32:28.189Z,27.40
2022-08-28T15:34:56.819Z,27.40
2022-08-28T15:37:25.424Z,27.40
2022-08-28T15:40:15.224Z,27.30
2022-08-28T15:42:45.492Z,27.30
2022-08-28T15:45:14.145Z,27.30
2022-08-28T15:47:42.768Z,27.20
2022-08-28T15:50:11.885Z,27.20
2022-08-28T15:52:40.757Z,27.20
2022-08-28T15:55:12.465Z,27.20
2022-08-28T15:57:41.164Z,27.20
2022-08-28T16:00:11.999Z,27.10
2022-08-28T16:02:40.968Z,27.10
2022-08-28T16:05:10.316Z,27.10
2022-08-28T16:07:38.996Z,27.10
2022-08-28T16:10:13.035Z,27.10
2022-08-28T16:12:43.120Z,27.00
2022-08-28T16:15:21.121Z,27.00
2022-08-28T16:17:50.017Z,27.00
2022-08-28T16:20:18.930Z,26.90
2022-08-28T16:22:47.569Z,26.90
2022-08-28T16:25:16.234Z,26.90
2022-08-28T16:27:46.349Z,27.00
2022-08-28T16:30:16.279Z,27.10
2022-08-28T16:32:46.914Z,27.10
2022-08-28T16:35:17.289Z,27.10
2022-08-28T16:37:45.930Z,27.10
2022-08-28T16:40:15.563Z,27.10
2022-08-28T16:42:51.675Z,27.00
2022-08-28T16:45:21.476Z,27.00
2022-08-28T16:47:50.278Z,27.00
2022-08-28T16:50:20.139Z,27.00
2022-08-28T16:52:48.805Z,27.00
2022-08-28T16:55:17.883Z,27.00
2022-08-28T16:57:47.861Z,26.90
2022-08-28T17:00:17.070Z,26.90
2022-08-28T17:02:46.944Z,26.80
2022-08-28T17:05:19.747Z,26.80
2022-08-28T17:07:49.550Z,26.80
2022-08-28T17:10:22.154Z,26.80
2022-08-28T17:12:53.034Z,26.70
2022-08-28T17:15:23.694Z,26.70
2022-08-28T17:17:52.616Z,26.90
2022-08-28T17:20:39.135Z,27.00
2022-08-28T17:23:07.848Z,27.20
2022-08-28T17:25:37.126Z,27.40
2022-08-28T17:28:07.524Z,27.60
2022-08-28T17:30:36.225Z,27.70
2022-08-28T17:33:07.303Z,27.80
2022-08-28T17:35:42.049Z,27.90
2022-08-28T17:38:11.415Z,27.90
2022-08-28T17:40:41.074Z,28.00
2022-08-28T17:43:16.198Z,27.90
2022-08-28T17:45:45.117Z,27.90
2022-08-28T17:48:14.645Z,27.80
2022-08-28T17:50:43.726Z,27.70
2022-08-28T17:53:12.823Z,27.60
2022-08-28T17:55:41.608Z,27.60
2022-08-28T17:58:12.025Z,27.60
2022-08-28T18:00:41.396Z,27.60
2022-08-28T18:03:10.411Z,27.60
2022-08-28T18:05:41.245Z,27.60
2022-08-28T18:08:10.453Z,27.40
2022-08-28T18:10:39.365Z,27.30
2022-08-28T18:13:08.651Z,27.20
2022-08-28T18:15:38.818Z,27.20
2022-08-28T18:18:08.065Z,27.00
2022-08-28T18:20:37.031Z,26.70
2022-08-28T18:23:05.889Z,26.40
2022-08-28T18:25:48.657Z,26.20
2022-08-28T18:28:23.364Z,26.00
2022-08-28T18:30:54.647Z,25.80
2022-08-28T18:33:25.715Z,25.70
2022-08-28T18:35:55.252Z,25.70
2022-08-28T18:38:27.882Z,25.60
2022-08-28T18:40:57.312Z,25.50
2022-08-28T18:43:26.616Z,25.30
2022-08-28T18:45:57.534Z,25.30
2022-08-28T18:48:26.173Z,25.20
2022-08-28T18:50:55.233Z,25.10
2022-08-28T18:53:26.477Z,25.00
2022-08-28T18:55:55.788Z,25.00
2022-08-28T18:58:27.397Z,25.00
2022-08-28T19:00:57.481Z,24.90
2022-08-28T19:03:26.228Z,24.90
2022-08-28T19:05:56.231Z,24.80
2022-08-28T19:08:25.128Z,24.80
2022-08-28T19:10:54.207Z,24.70
2022-08-28T19:13:22.943Z,24.70
2022-08-28T19:15:53.229Z,24.60
2022-08-28T19:18:24.066Z,24.50
2022-08-28T19:20:52.879Z,24.50
2022-08-28T19:23:21.695Z,24.50
2022-08-28T19:25:50.354Z,24.40
2022-08-28T19:28:19.239Z,24.40
2022-08-28T19:30:48.499Z,24.20
2022-08-28T19:33:17.563Z,24.10
2022-08-28T19:35:47.790Z,24.00
2022-08-28T19:38:16.685Z,24.00
2022-08-28T19:40:46.019Z,24.10
2022-08-28T19:43:16.735Z,24.10
2022-08-28T19:45:46.731Z,24.10
2022-08-28T19:48:15.543Z,24.10
2022-08-28T19:50:44.923Z,24.20
2022-08-28T19:53:15.249Z,24.30
2022-08-28T19:55:44.043Z,24.40
2022-08-28T19:58:12.850Z,24.60
2022-08-28T20:00:42.060Z,24.90
2022-08-28T20:03:10.894Z,25.10
2022-08-28T20:05:41.035Z,25.30
2022-08-28T20:08:09.856Z,25.40
2022-08-28T20:10:42.124Z,25.50
2022-08-28T20:13:10.788Z,25.60
2022-08-28T20:15:42.958Z,25.70
2022-08-28T20:18:12.464Z,25.40
2022-08-28T20:20:44.396Z,25.10
2022-08-28T20:23:13.858Z,25.00
2022-08-28T20:25:49.590Z,24.80
2022-08-28T20:28:20.224Z,24.60
2022-08-28T20:30:49.282Z,24.40
2022-08-28T20:33:18.050Z,24.40
2022-08-28T20:35:46.844Z,24.40
2022-08-28T20:38:15.802Z,24.20
2022-08-28T20:40:44.873Z,24.20
2022-08-28T20:43:15.394Z,24.10
2022-08-28T20:45:44.264Z,24.00
2022-08-28T20:48:13.283Z,24.00
2022-08-28T20:50:42.469Z,23.90
2022-08-28T20:53:11.274Z,23.90
2022-08-28T20:55:40.061Z,23.90
2022-08-28T20:58:08.936Z,23.80
2022-08-28T21:00:39.235Z,23.80
2022-08-28T21:03:12.071Z,23.70
2022-08-28T21:05:44.684Z,23.70
2022-08-28T21:08:17.084Z,23.60
2022-08-28T21:10:47.069Z,23.60
2022-08-28T21:13:16.048Z,23.60
2022-08-28T21:15:46.277Z,23.50
2022-08-28T21:18:15.998Z,23.50
2022-08-28T21:20:44.991Z,23.50
2022-08-28T21:23:13.680Z,23.50
2022-08-28T21:25:43.292Z,23.50
2022-08-28T21:28:11.947Z,23.40
2022-08-28T21:30:42.989Z,23.40
2022-08-28T21:33:13.430Z,23.30
2022-08-28T21:35:42.623Z,23.30
2022-08-28T21:38:11.367Z,23.30
2022-08-28T21:40:41.811Z,23.40
2022-08-28T21:43:10.597Z,23.30
2022-08-28T21:45:39.325Z,23.30
2022-08-28T21:48:08.160Z,23.30
2022-08-28T21:50:38.127Z,23.30
2022-08-28T21:53:06.799Z,23.20
2022-08-28T21:55:35.660Z,23.10
2022-08-28T21:58:04.596Z,23.10
2022-08-28T22:00:33.554Z,23.20
2022-08-28T22:03:02.261Z,23.10
2022-08-28T22:05:30.947Z,23.10
2022-08-28T22:08:00.957Z,23.10
2022-08-28T22:10:29.871Z,23.00
2022-08-28T22:12:58.577Z,22.90
2022-08-28T22:15:27.211Z,22.90
2022-08-28T22:17:55.943Z,22.90
2022-08-28T22:20:24.644Z,22.90
2022-08-28T22:23:10.190Z,22.90
2022-08-28T22:25:42.625Z,22.90
2022-08-28T22:28:11.951Z,22.90
2022-08-28T22:30:40.720Z,22.80
2022-08-28T22:33:10.084Z,22.80
2022-08-28T22:35:39.824Z,22.70
2022-08-28T22:38:08.461Z,22.60
2022-08-28T22:40:37.152Z,22.60
2022-08-28T22:43:07.214Z,22.60
2022-08-28T22:45:35.984Z,22.60
2022-08-28T22:48:05.549Z,22.60
2022-08-28T22:50:34.433Z,22.50
2022-08-28T22:53:03.158Z,22.30
2022-08-28T22:55:32.469Z,22.30
2022-08-28T22:58:01.065Z,22.40
2022-08-28T23:00:33.086Z,22.40
2022-08-28T23:03:02.022Z,22.40
2022-08-28T23:05:31.538Z,22.40
2022-08-28T23:08:00.163Z,22.40
2022-08-28T23:10:55.123Z,22.50
2022-08-28T23:13:19.573Z,22.50
2022-08-28T23:15:51.005Z,22.50
2022-08-28T23:18:21.228Z,22.40
2022-08-28T23:20:50.567Z,22.40
2022-08-28T23:23:20.300Z,22.40
2022-08-28T23:25:50.253Z,22.50
2022-08-28T23:28:19.073Z,22.50
2022-08-28T23:30:50.729Z,22.40
2022-08-28T23:33:24.103Z,22.50
2022-08-28T23:35:53.647Z,22.50
2022-08-28T23:38:22.661Z,22.60
2022-08-28T23:40:52.089Z,22.60
2022-08-28T23:43:21.059Z,22.50
2022-08-28T23:45:52.151Z,22.50
2022-08-28T23:48:21.144Z,22.50
2022-08-28T23:50:50.105Z,22.50
2022-08-28T23:53:19.572Z,22.50
2022-08-28T23:55:49.869Z,22.50
2022-08-28T23:58:22.369Z,22.50
